Time;durP1;ratioP1;P1;durP2;ratioP2;P2;SDS_P1;SDS_P2;PMS_P1;PMS_P2;Temp;Humidity;BMP_temperature;BMP_pressure;BME280_temperature;BME280_humidity;BME280_pressure;Samples;Min_cycle;Max_cycle;Signal;HPM_P1;HPM_P2
2023/03/30 00:00:38;;;;;;;16.17;10.55;;;11.00;99.90;;;;;;5053018;28;20041;-75
2023/03/30 00:03:03;;;;;;;18.60;9.98;;;11.10;99.90;;;;;;5072094;28;20086;-76
2023/03/30 00:05:29;;;;;;;14.88;9.80;;;11.10;99.90;;;;;;5053805;28;20060;-77
2023/03/30 00:07:55;;;;;;;15.20;9.63;;;11.20;99.90;;;;;;5071813;28;20052;-75
2023/03/30 00:10:21;;;;;;;12.90;9.00;;;11.30;99.90;;;;;;5072015;28;20051;-75
2023/03/30 00:12:49;;;;;;;12.23;8.52;;;11.10;99.90;;;;;;5071411;28;20506;-77
2023/03/30 00:15:17;;;;;;;18.02;9.02;;;11.20;99.90;;;;;;5072198;28;20041;-76
2023/03/30 00:17:43;;;;;;;14.25;9.13;;;11.20;99.90;;;;;;5071713;28;20052;-76
2023/03/30 00:20:11;;;;;;;13.32;8.38;;;11.50;99.90;;;;;;5071973;28;20052;-78
2023/03/30 00:22:41;;;;;;;13.55;7.65;;;11.30;99.90;;;;;;5053202;28;20041;-77
2023/03/30 00:25:09;;;;;;;13.73;8.13;;;11.20;99.90;;;;;;5071726;28;20174;-76
2023/03/30 00:27:38;;;;;;;12.45;8.48;;;11.30;99.90;;;;;;5071487;28;20103;-77
2023/03/30 00:30:06;;;;;;;13.98;7.82;;;11.30;99.90;;;;;;5071197;28;20050;-76
2023/03/30 00:32:33;;;;;;;14.23;7.70;;;11.30;99.90;;;;;;5071162;28;20628;-75
2023/03/30 00:34:59;;;;;;;12.63;7.75;;;11.40;99.90;;;;;;5053319;28;20123;-76
2023/03/30 00:37:24;;;;;;;11.23;8.15;;;11.40;99.90;;;;;;5071213;28;20161;-76
2023/03/30 00:39:52;;;;;;;13.60;6.85;;;11.40;99.90;;;;;;5070442;28;20651;-74
2023/03/30 00:42:18;;;;;;;12.55;7.72;;;11.70;99.90;;;;;;5033065;28;20511;-77
2023/03/30 00:45:06;;;;;;;13.80;7.30;;;11.50;99.90;;;;;;5064028;28;20048;-77
2023/03/30 00:47:37;;;;;;;15.80;7.40;;;11.50;99.90;;;;;;5071319;28;20701;-75
2023/03/30 00:50:04;;;;;;;18.92;6.82;;;11.70;99.90;;;;;;5071017;28;20499;-76
2023/03/30 00:52:32;;;;;;;12.18;6.60;;;11.50;99.90;;;;;;5070956;28;20055;-74
2023/03/30 00:54:58;;;;;;;12.18;6.82;;;11.50;99.90;;;;;;5070396;28;20048;-76
2023/03/30 00:57:25;;;;;;;13.00;7.38;;;11.80;99.90;;;;;;5071046;28;20391;-78
2023/03/30 00:59:52;;;;;;;11.65;6.10;;;11.90;99.90;;;;;;5071065;28;20094;-76
2023/03/30 01:02:20;;;;;;;11.57;6.20;;;11.60;99.90;;;;;;5070804;28;20488;-76
2023/03/30 01:04:47;;;;;;;10.88;6.25;;;11.60;99.90;;;;;;5070462;28;20814;-74
2023/03/30 01:07:14;;;;;;;11.40;5.90;;;11.60;99.90;;;;;;5071125;28;20479;-76
2023/03/30 01:09:41;;;;;;;13.65;6.57;;;12.00;99.90;;;;;;5070300;28;20041;-77
2023/03/30 01:12:08;;;;;;;11.98;6.60;;;11.60;99.90;;;;;;5070873;28;20048;-76
2023/03/30 01:14:34;;;;;;;11.45;6.30;;;11.80;99.90;;;;;;5070853;28;20049;-76
2023/03/30 01:17:16;;;;;;;9.35;6.25;;;11.90;99.90;;;;;;5070383;28;20123;-76
2023/03/30 01:20:01;;;;;;;8.80;6.00;;;11.90;99.90;;;;;;5070656;28;20139;-77
2023/03/30 01:22:55;;;;;;;11.35;6.13;;;11.60;99.90;;;;;;5070403;28;20048;-75
2023/03/30 01:25:56;;;;;;;13.20;6.25;;;11.60;99.90;;;;;;5070412;28;20056;-76
2023/03/30 01:28:39;;;;;;;11.38;6.00;;;11.50;99.90;;;;;;5070466;28;20051;-76
2023/03/30 01:31:26;;;;;;;13.38;6.20;;;11.50;99.90;;;;;;5070218;28;20037;-75
2023/03/30 01:34:00;;;;;;;10.38;6.10;;;11.50;99.90;;;;;;5070452;28;20041;-76
2023/03/30 01:36:45;;;;;;;9.05;5.80;;;11.50;99.90;;;;;;5070501;28;20051;-76
2023/03/30 01:39:43;;;;;;;9.63;5.77;;;11.50;99.90;;;;;;5069974;28;20139;-77
2023/03/30 01:42:21;;;;;;;13.95;6.70;;;11.50;99.90;;;;;;5069247;28;20306;-75
2023/03/30 01:45:06;;;;;;;10.77;6.25;;;11.80;99.90;;;;;;5069962;28;20060;-74
2023/03/30 01:47:51;;;;;;;14.15;6.30;;;11.50;99.90;;;;;;5069973;28;20052;-76
2023/03/30 01:50:57;;;;;;;14.18;5.80;;;11.50;99.90;;;;;;5070250;28;20108;-77
2023/03/30 01:53:32;;;;;;;14.27;5.53;;;11.50;99.90;;;;;;5069768;28;20048;-76
2023/03/30 01:56:19;;;;;;;13.18;5.63;;;11.50;99.90;;;;;;5069661;28;20045;-77
2023/03/30 01:59:00;;;;;;;10.20;5.93;;;11.50;99.90;;;;;;5069824;28;20048;-77
2023/03/30 02:01:29;;;;;;;12.27;5.07;;;11.50;99.90;;;;;;5063772;28;20048;-77
2023/03/30 02:03:57;;;;;;;9.38;5.30;;;11.50;99.90;;;;;;5040206;28;20144;-75
2023/03/30 02:06:37;;;;;;;10.70;5.18;;;11.50;99.90;;;;;;5049517;28;20052;-77
2023/03/30 02:09:06;;;;;;;13.85;5.22;;;11.60;99.90;;;;;;5049753;28;20048;-76
2023/03/30 02:11:33;;;;;;;9.63;5.22;;;11.40;99.90;;;;;;5055772;28;20048;-76
2023/03/30 02:14:01;;;;;;;11.98;5.13;;;11.60;99.90;;;;;;5065794;28;20036;-72
2023/03/30 02:16:45;;;;;;;7.97;4.75;;;11.60;99.90;;;;;;5050703;28;20056;-75
2023/03/30 02:19:11;;;;;;;9.35;4.53;;;11.70;99.90;;;;;;5058489;28;20044;-77
2023/03/30 02:21:37;;;;;;;10.50;4.53;;;12.00;99.90;;;;;;5069908;28;20360;-75
2023/03/30 02:24:06;;;;;;;12.20;4.70;;;11.70;99.90;;;;;;5069754;28;20365;-76
2023/03/30 02:26:32;;;;;;;10.82;4.68;;;11.70;99.90;;;;;;5065741;28;20120;-75
2023/03/30 02:28:58;;;;;;;9.90;4.90;;;11.70;99.90;;;;;;5049693;28;20077;-76
2023/03/30 02:31:24;;;;;;;10.95;4.43;;;11.70;99.90;;;;;;5054048;28;20095;-75
2023/03/30 02:34:11;;;;;;;8.48;3.80;;;11.60;99.90;;;;;;5049404;28;20087;-75
2023/03/30 02:36:46;;;;;;;9.90;4.50;;;11.60;99.90;;;;;;5061229;28;20087;-75
2023/03/30 02:39:28;;;;;;;12.40;4.28;;;11.60;99.90;;;;;;5069612;28;20040;-77
2023/03/30 02:42:08;;;;;;;9.23;3.90;;;11.70;99.90;;;;;;5065781;28;20037;-75
2023/03/30 02:44:49;;;;;;;11.50;4.03;;;11.70;99.90;;;;;;5066098;28;20071;-75
2023/03/30 02:47:33;;;;;;;14.52;3.58;;;11.70;99.90;;;;;;5062004;28;20072;-75
2023/03/30 02:50:21;;;;;;;10.63;3.85;;;11.70;99.90;;;;;;5069254;28;20072;-76
2023/03/30 02:53:06;;;;;;;8.32;3.92;;;11.70;99.90;;;;;;5071381;28;20059;-75
2023/03/30 02:56:11;;;;;;;9.80;3.15;;;11.70;99.90;;;;;;5073151;28;20454;-75
2023/03/30 02:58:43;;;;;;;13.45;3.55;;;11.80;99.90;;;;;;5055037;28;20048;-75
2023/03/30 03:01:11;;;;;;;9.57;4.20;;;11.80;99.90;;;;;;5072892;28;20514;-75
2023/03/30 03:03:44;;;;;;;9.25;3.53;;;11.80;99.90;;;;;;5073029;28;20048;-74
2023/03/30 03:06:13;;;;;;;8.15;3.85;;;11.90;99.90;;;;;;5055533;28;20048;-75
2023/03/30 03:08:41;;;;;;;9.20;3.85;;;11.90;99.90;;;;;;5072739;28;20140;-74
2023/03/30 03:11:08;;;;;;;8.57;3.50;;;12.10;99.90;;;;;;5072624;28;20131;-74
2023/03/30 03:13:38;;;;;;;8.13;3.28;;;11.90;99.90;;;;;;5072442;28;20056;-75
2023/03/30 03:16:06;;;;;;;10.45;3.22;;;12.00;99.90;;;;;;5072399;28;20079;-73
2023/03/30 03:18:33;;;;;;;5.70;3.00;;;11.90;99.90;;;;;;5070179;28;20158;-75
2023/03/30 03:21:00;;;;;;;11.25;3.70;;;11.90;99.90;;;;;;5052822;28;20806;-75
2023/03/30 03:23:26;;;;;;;7.70;3.05;;;11.90;99.90;;;;;;5061868;28;20040;-75
2023/03/30 03:25:52;;;;;;;12.13;3.28;;;11.80;99.90;;;;;;5072330;28;20045;-74
2023/03/30 03:28:18;;;;;;;8.23;3.13;;;11.80;99.90;;;;;;5071619;28;20067;-75
2023/03/30 03:30:43;;;;;;;11.85;4.35;;;11.80;99.90;;;;;;5072780;28;20036;-76
2023/03/30 03:33:10;;;;;;;9.48;3.63;;;11.70;99.90;;;;;;5054724;28;20048;-74
2023/03/30 03:35:38;;;;;;;8.93;3.70;;;11.70;99.90;;;;;;5072482;28;20047;-75
2023/03/30 03:38:05;;;;;;;11.40;3.30;;;11.70;99.90;;;;;;5072311;28;20468;-74
2023/03/30 03:40:31;;;;;;;9.15;3.88;;;11.70;99.90;;;;;;5072008;28;20495;-74
2023/03/30 03:42:57;;;;;;;12.68;3.50;;;11.70;99.90;;;;;;5071388;28;20052;-74
2023/03/30 03:45:22;;;;;;;8.70;3.40;;;11.80;99.90;;;;;;5052210;28;20136;-74
2023/03/30 03:47:52;;;;;;;9.00;3.60;;;12.00;99.90;;;;;;5060187;28;20071;-74
2023/03/30 03:50:18;;;;;;;12.85;3.33;;;11.80;99.90;;;;;;5071972;28;20131;-75
2023/03/30 03:52:44;;;;;;;8.95;2.70;;;11.70;99.90;;;;;;5072148;28;20135;-77
2023/03/30 03:55:10;;;;;;;9.90;3.65;;;11.70;99.90;;;;;;5072360;28;20048;-74
2023/03/30 03:57:36;;;;;;;10.18;3.17;;;11.80;99.90;;;;;;5071553;28;20856;-74
2023/03/30 04:00:03;;;;;;;13.98;3.75;;;11.80;99.90;;;;;;5072204;28;20511;-73
2023/03/30 04:02:29;;;;;;;15.15;3.10;;;11.80;99.90;;;;;;5071931;28;20048;-74
2023/03/30 04:04:56;;;;;;;7.97;2.60;;;11.70;99.90;;;;;;5071155;28;20036;-74
2023/03/30 04:07:24;;;;;;;11.40;2.80;;;11.80;99.90;;;;;;5071975;28;20059;-75
2023/03/30 04:09:50;;;;;;;14.23;3.15;;;11.80;99.90;;;;;;5071799;28;20044;-75
2023/03/30 04:12:16;;;;;;;8.52;2.50;;;11.70;99.90;;;;;;5070756;28;20757;-76
2023/03/30 04:14:41;;;;;;;8.57;2.42;;;11.70;99.90;;;;;;5071621;28;20132;-75
2023/03/30 04:17:07;;;;;;;9.77;2.97;;;11.70;99.90;;;;;;5071824;28;20045;-75
2023/03/30 04:19:34;;;;;;;8.75;2.35;;;11.80;99.90;;;;;;5071778;28;20045;-75
2023/03/30 04:22:00;;;;;;;11.50;2.88;;;11.70;99.90;;;;;;5071674;28;20052;-75
2023/03/30 04:24:28;;;;;;;8.43;2.45;;;11.70;99.90;;;;;;5071876;28;20055;-75
2023/03/30 04:26:56;;;;;;;12.25;2.50;;;11.80;99.90;;;;;;5071544;28;20040;-77
2023/03/30 04:29:22;;;;;;;9.57;2.40;;;11.70;99.90;;;;;;5070938;28;20048;-76
2023/03/30 04:31:49;;;;;;;11.25;2.40;;;12.20;99.90;;;;;;5071031;28;20515;-73
2023/03/30 04:34:20;;;;;;;10.05;2.50;;;11.70;99.90;;;;;;5071604;28;20135;-75
2023/03/30 04:36:47;;;;;;;11.23;2.60;;;11.70;99.90;;;;;;5051479;28;20100;-75
2023/03/30 04:39:12;;;;;;;10.32;3.17;;;11.70;99.90;;;;;;5061853;28;20116;-74
2023/03/30 04:41:40;;;;;;;10.65;2.13;;;11.90;99.90;;;;;;5071058;28;20140;-74
2023/03/30 04:44:09;;;;;;;12.75;2.25;;;11.90;99.90;;;;;;5071133;28;20067;-75
2023/03/30 04:46:35;;;;;;;9.05;2.38;;;11.80;99.90;;;;;;5069497;28;20522;-75
2023/03/30 04:49:02;;;;;;;12.02;2.33;;;11.80;99.90;;;;;;5053004;28;20491;-75
2023/03/30 04:51:27;;;;;;;6.78;1.85;;;11.80;99.90;;;;;;5052997;28;20575;-75
2023/03/30 04:53:54;;;;;;;9.45;2.50;;;11.80;99.90;;;;;;5071101;28;20127;-74
2023/03/30 04:56:20;;;;;;;10.52;2.30;;;11.80;99.90;;;;;;5070657;28;20098;-75
2023/03/30 04:58:46;;;;;;;10.35;2.63;;;11.90;99.90;;;;;;5070963;28;20049;-75
2023/03/30 05:01:12;;;;;;;12.18;2.88;;;11.80;99.90;;;;;;5071580;28;20098;-73
2023/03/30 05:03:38;;;;;;;14.60;2.65;;;11.90;99.90;;;;;;5070953;28;20044;-74
2023/03/30 05:06:04;;;;;;;13.98;2.78;;;12.10;99.90;;;;;;5070514;28;20040;-74
2023/03/30 05:08:29;;;;;;;9.93;2.42;;;11.90;99.90;;;;;;5070684;28;20455;-74
2023/03/30 05:10:59;;;;;;;12.43;2.40;;;12.00;99.90;;;;;;5070813;28;20035;-75
2023/03/30 05:13:25;;;;;;;10.77;2.63;;;12.00;99.90;;;;;;5069964;28;20384;-74
2023/03/30 05:15:55;;;;;;;16.55;2.55;;;12.00;99.90;;;;;;5060059;28;20094;-74
2023/03/30 05:18:22;;;;;;;14.88;2.63;;;12.00;99.90;;;;;;5066982;28;20122;-74
2023/03/30 05:20:48;;;;;;;13.43;2.45;;;12.00;99.90;;;;;;5070684;28;20115;-75
2023/03/30 05:23:13;;;;;;;9.82;2.33;;;12.00;99.90;;;;;;5070435;28;20040;-73
2023/03/30 05:25:47;;;;;;;9.40;2.95;;;12.00;99.90;;;;;;5070732;28;20170;-74
2023/03/30 05:28:13;;;;;;;9.90;2.53;;;12.00;99.90;;;;;;5070257;28;20377;-74
2023/03/30 05:30:39;;;;;;;14.30;3.15;;;12.30;99.90;;;;;;5070577;28;20118;-74
2023/03/30 05:33:05;;;;;;;14.75;2.95;;;12.50;99.90;;;;;;5070373;28;20477;-75
2023/03/30 05:35:30;;;;;;;13.98;2.97;;;12.20;99.90;;;;;;5070342;28;20040;-74
2023/03/30 05:37:57;;;;;;;15.23;3.17;;;12.10;99.90;;;;;;5070017;28;20530;-74
2023/03/30 05:40:23;;;;;;;18.90;2.85;;;12.10;99.90;;;;;;5070027;28;20057;-75
2023/03/30 05:42:48;;;;;;;11.07;2.95;;;12.00;99.90;;;;;;5069782;28;20052;-73
2023/03/30 05:45:14;;;;;;;16.80;3.33;;;12.10;99.90;;;;;;5069733;28;20060;-75
2023/03/30 05:47:39;;;;;;;13.57;3.30;;;12.10;99.90;;;;;;5069998;28;20110;-74
2023/03/30 05:50:08;;;;;;;10.13;2.80;;;12.20;99.90;;;;;;5068520;28;20080;-75
2023/03/30 05:52:34;;;;;;;11.10;2.90;;;12.10;99.90;;;;;;5069683;28;20040;-76
2023/03/30 05:54:59;;;;;;;9.07;2.65;;;12.20;99.90;;;;;;5069882;28;20434;-74
2023/03/30 05:57:25;;;;;;;7.03;2.80;;;12.00;99.90;;;;;;5070107;28;20044;-74
2023/03/30 05:59:51;;;;;;;9.98;3.10;;;12.50;99.90;;;;;;5069276;28;20487;-74
2023/03/30 06:02:18;;;;;;;12.32;3.38;;;12.10;99.90;;;;;;5069414;28;20051;-74
2023/03/30 06:04:44;;;;;;;9.23;2.95;;;12.10;99.90;;;;;;5069597;28;20044;-75
2023/03/30 06:07:10;;;;;;;10.02;3.00;;;12.30;99.90;;;;;;5069989;28;20097;-75
2023/03/30 06:09:36;;;;;;;12.23;2.97;;;12.00;99.90;;;;;;5069561;28;20793;-75
2023/03/30 06:12:02;;;;;;;14.98;3.95;;;12.10;99.90;;;;;;5069580;28;20127;-76
2023/03/30 06:14:28;;;;;;;14.63;3.42;;;12.00;99.90;;;;;;5055226;28;20090;-75
2023/03/30 06:16:53;;;;;;;10.25;2.95;;;12.10;99.90;;;;;;5066726;28;20041;-74
2023/03/30 06:19:19;;;;;;;10.00;3.25;;;12.10;99.90;;;;;;5069730;28;20053;-74
2023/03/30 06:21:46;;;;;;;11.80;3.85;;;12.10;99.90;;;;;;5069826;28;20403;-76
2023/03/30 06:24:12;;;;;;;12.13;3.22;;;12.10;99.90;;;;;;5069989;28;20052;-76
2023/03/30 06:26:38;;;;;;;9.02;3.22;;;12.00;99.90;;;;;;5069104;28;20044;-75
2023/03/30 06:29:03;;;;;;;9.10;3.20;;;12.00;99.90;;;;;;5069744;28;20567;-76
2023/03/30 06:31:29;;;;;;;12.88;3.60;;;12.00;99.90;;;;;;5049019;28;20054;-76
2023/03/30 06:33:55;;;;;;;12.48;3.35;;;12.00;99.90;;;;;;5069976;28;20095;-74
2023/03/30 06:36:21;;;;;;;12.27;4.03;;;12.00;99.90;;;;;;5069346;28;20045;-75
2023/03/30 06:38:47;;;;;;;12.43;3.60;;;12.00;99.90;;;;;;5067276;28;20055;-75
2023/03/30 06:41:14;;;;;;;15.50;3.63;;;12.40;99.90;;;;;;5069646;28;20043;-74
2023/03/30 06:43:39;;;;;;;12.98;3.58;;;12.30;99.90;;;;;;5069188;28;20116;-74
2023/03/30 06:46:06;;;;;;;14.90;3.60;;;12.10;99.90;;;;;;5069548;28;20123;-75
2023/03/30 06:48:31;;;;;;;12.25;3.22;;;12.10;99.90;;;;;;5069747;28;20052;-75
2023/03/30 06:50:58;;;;;;;8.77;2.78;;;12.30;99.90;;;;;;5069762;28;20052;-75
2023/03/30 06:53:23;;;;;;;13.57;3.03;;;12.20;99.90;;;;;;5061613;28;20392;-75
2023/03/30 06:55:54;;;;;;;13.88;3.00;;;12.20;99.90;;;;;;5056547;28;20032;-73
2023/03/30 06:58:20;;;;;;;12.52;2.50;;;12.20;99.90;;;;;;5059513;28;20063;-74
2023/03/30 07:00:46;;;;;;;14.52;3.00;;;12.20;99.90;;;;;;5066821;28;20044;-73
2023/03/30 07:03:12;;;;;;;17.92;3.42;;;12.20;99.90;;;;;;5054420;28;20094;-75
2023/03/30 07:05:38;;;;;;;16.27;2.90;;;12.20;99.90;;;;;;5053348;28;20442;-76
2023/03/30 07:08:05;;;;;;;14.25;2.47;;;12.50;99.90;;;;;;5049082;28;20549;-74
2023/03/30 07:10:31;;;;;;;24.40;2.95;;;12.20;99.90;;;;;;5049061;28;20047;-81
2023/03/30 07:12:57;;;;;;;17.23;3.05;;;12.20;99.90;;;;;;5048611;28;20053;-80
2023/03/30 07:15:23;;;;;;;17.88;3.05;;;12.20;99.90;;;;;;5062974;28;20048;-74
2023/03/30 07:17:49;;;;;;;12.82;2.63;;;12.30;99.90;;;;;;5047466;28;20079;-81
2023/03/30 07:20:15;;;;;;;15.02;2.13;;;12.30;99.90;;;;;;5069070;28;20048;-83
2023/03/30 07:22:41;;;;;;;16.23;2.58;;;12.30;99.90;;;;;;5057959;28;20056;-72
2023/03/30 07:25:08;;;;;;;11.77;2.92;;;12.20;99.90;;;;;;5060284;28;20056;-72
2023/03/30 07:27:35;;;;;;;15.13;2.38;;;12.20;99.90;;;;;;5048650;28;20492;-74
2023/03/30 07:30:02;;;;;;;12.95;2.50;;;12.20;99.90;;;;;;5062666;28;20091;-80
2023/03/30 07:32:28;;;;;;;13.70;2.63;;;12.20;99.90;;;;;;5060728;23;20087;-72
2023/03/30 07:34:54;;;;;;;16.30;2.72;;;12.20;99.90;;;;;;5035153;28;20065;-74
2023/03/30 07:37:37;;;;;;;21.48;3.20;;;12.10;99.90;;;;;;5018895;28;20064;-83
2023/03/30 07:40:16;;;;;;;14.90;2.97;;;12.10;99.90;;;;;;5044538;28;20036;-76
2023/03/30 07:42:42;;;;;;;18.90;2.97;;;12.10;99.90;;;;;;5053150;28;20060;-75
2023/03/30 07:45:08;;;;;;;18.77;2.88;;;12.00;99.90;;;;;;5047918;28;20041;-75
2023/03/30 07:47:35;;;;;;;20.40;3.80;;;12.00;99.90;;;;;;5052943;28;20040;-74
2023/03/30 07:50:01;;;;;;;18.10;3.40;;;11.90;99.90;;;;;;5039662;28;20510;-80
2023/03/30 07:52:26;;;;;;;20.73;3.30;;;12.20;99.90;;;;;;5040410;28;20041;-74
2023/03/30 07:55:07;;;;;;;21.25;3.35;;;11.80;99.90;;;;;;5044572;28;20042;-77
2023/03/30 07:57:39;;;;;;;23.20;3.42;;;11.80;99.90;;;;;;5049643;28;20582;-73
2023/03/30 08:00:09;;;;;;;20.35;3.53;;;11.80;99.90;;;;;;5043787;28;20096;-80
2023/03/30 08:02:41;;;;;;;19.52;3.15;;;11.70;99.90;;;;;;5022310;23;20081;-83
2023/03/30 08:05:28;;;;;;;25.52;4.18;;;11.70;99.90;;;;;;5018355;22;20578;-74
2023/03/30 08:07:53;;;;;;;16.60;3.38;;;12.00;99.90;;;;;;5032449;28;20403;-74
2023/03/30 08:10:46;;;;;;;19.80;3.58;;;11.70;99.90;;;;;;5032266;28;20191;-76
2023/03/30 08:13:27;;;;;;;19.30;3.53;;;11.60;99.90;;;;;;5028755;28;20926;-74
2023/03/30 08:16:26;;;;;;;28.40;3.70;;;11.60;99.90;;;;;;5032038;28;20053;-73
2023/03/30 08:19:18;;;;;;;21.27;3.78;;;11.60;99.90;;;;;;5013801;28;20527;-81
2023/03/30 08:21:46;;;;;;;21.50;3.55;;;11.60;99.90;;;;;;4970808;28;20131;-74
2023/03/30 08:24:12;;;;;;;26.50;4.88;;;11.50;99.90;;;;;;4969666;28;20058;-74
2023/03/30 08:26:38;;;;;;;24.50;4.35;;;11.50;99.90;;;;;;4970574;28;20058;-76
2023/03/30 08:29:03;;;;;;;20.83;4.57;;;11.50;99.90;;;;;;4971210;28;20086;-74
2023/03/30 08:31:32;;;;;;;24.67;3.72;;;11.80;99.90;;;;;;4969151;28;20134;-73
2023/03/30 08:34:03;;;;;;;25.42;3.72;;;11.50;99.90;;;;;;4988294;28;20054;-74
2023/03/30 08:36:29;;;;;;;26.42;4.00;;;11.40;99.90;;;;;;4984835;28;20512;-74
2023/03/30 08:38:54;;;;;;;28.00;4.30;;;11.40;99.90;;;;;;4970112;28;20132;-74
2023/03/30 08:41:59;;;;;;;28.10;4.47;;;11.40;99.90;;;;;;4969156;28;20164;-74
2023/03/30 08:44:42;;;;;;;25.02;4.57;;;11.40;99.90;;;;;;4971122;28;20047;-75
2023/03/30 08:47:13;;;;;;;27.20;5.18;;;11.60;99.90;;;;;;4989261;28;20042;-76
2023/03/30 08:49:54;;;;;;;24.80;5.20;;;11.80;99.90;;;;;;4972793;28;20053;-74
2023/03/30 08:52:24;;;;;;;23.75;4.25;;;11.50;99.90;;;;;;4974678;28;20062;-76
2023/03/30 08:54:50;;;;;;;27.70;6.20;;;11.60;99.90;;;;;;4969073;28;20052;-73
2023/03/30 08:57:16;;;;;;;29.40;4.43;;;11.70;99.90;;;;;;4970141;28;20875;-74
2023/03/30 08:59:50;;;;;;;26.70;4.63;;;11.80;99.90;;;;;;5025085;28;20137;-72
2023/03/30 09:02:35;;;;;;;23.80;4.03;;;12.10;99.90;;;;;;5029905;28;20076;-74
2023/03/30 09:05:14;;;;;;;21.02;3.88;;;11.90;99.90;;;;;;5031689;28;20054;-76
2023/03/30 09:08:02;;;;;;;25.92;4.63;;;11.80;99.90;;;;;;5031810;28;20054;-74
2023/03/30 09:10:35;;;;;;;20.30;4.30;;;11.90;99.90;;;;;;5031386;28;20045;-73
2023/03/30 09:13:03;;;;;;;27.63;4.57;;;11.90;99.90;;;;;;5031159;28;20081;-74
2023/03/30 09:15:32;;;;;;;33.10;4.53;;;12.00;99.90;;;;;;5030472;28;20095;-74
2023/03/30 09:18:05;;;;;;;26.92;4.45;;;12.00;99.90;;;;;;5022592;28;20092;-73
2023/03/30 09:20:33;;;;;;;23.40;4.32;;;12.20;99.90;;;;;;5021159;28;20128;-75
2023/03/30 09:23:01;;;;;;;26.42;4.55;;;12.30;99.90;;;;;;5027506;28;20405;-74
2023/03/30 09:25:44;;;;;;;21.85;3.53;;;12.30;99.90;;;;;;5024907;28;20575;-72
2023/03/30 09:28:29;;;;;;;31.25;4.63;;;12.40;99.90;;;;;;5027767;28;20045;-79
2023/03/30 09:31:02;;;;;;;22.57;4.13;;;12.50;99.90;;;;;;5012975;28;20060;-75
2023/03/30 09:33:37;;;;;;;20.50;3.08;;;12.60;99.90;;;;;;5030942;28;20080;-77
2023/03/30 09:36:14;;;;;;;26.75;3.80;;;12.50;99.90;;;;;;5027894;28;20111;-77
2023/03/30 09:38:41;;;;;;;21.13;3.30;;;12.50;99.90;;;;;;5015161;28;20393;-78
2023/03/30 09:41:23;;;;;;;19.05;3.33;;;12.40;99.90;;;;;;5021363;28;20088;-78
2023/03/30 09:43:50;;;;;;;17.25;3.75;;;12.30;99.90;;;;;;5004176;28;20096;-76
2023/03/30 09:46:16;;;;;;;27.83;3.97;;;12.60;99.90;;;;;;5018344;28;20054;-82
2023/03/30 09:48:47;;;;;;;21.65;3.67;;;12.30;99.90;;;;;;5023040;28;20103;-76
2023/03/30 09:51:26;;;;;;;26.57;3.63;;;12.30;99.90;;;;;;5026580;28;20045;-80
2023/03/30 09:53:59;;;;;;;22.45;3.40;;;12.20;99.90;;;;;;5030535;28;20060;-80
2023/03/30 09:56:26;;;;;;;20.40;3.45;;;12.20;99.90;;;;;;5030358;28;20637;-78
2023/03/30 09:58:52;;;;;;;25.92;4.07;;;12.10;99.90;;;;;;5030276;28;20136;-79
2023/03/30 10:01:19;;;;;;;19.25;3.83;;;12.20;99.90;;;;;;5029809;28;20080;-75
2023/03/30 10:04:06;;;;;;;19.52;3.45;;;12.00;99.90;;;;;;5030085;28;20041;-73
2023/03/30 10:06:37;;;;;;;22.73;3.63;;;12.20;99.90;;;;;;5029708;28;20106;-81
2023/03/30 10:09:07;;;;;;;24.73;4.03;;;12.20;99.90;;;;;;5030238;28;20488;-76
2023/03/30 10:11:47;;;;;;;16.25;2.70;;;12.40;99.90;;;;;;5021194;28;20053;-74
2023/03/30 10:14:34;;;;;;;20.85;3.40;;;12.10;99.90;;;;;;5010295;28;20054;-79
2023/03/30 10:17:20;;;;;;;20.95;3.17;;;12.10;99.90;;;;;;5010579;28;20135;-76
2023/03/30 10:19:46;;;;;;;19.65;2.63;;;12.10;99.90;;;;;;5009033;28;20041;-85
2023/03/30 10:22:17;;;;;;;18.60;3.75;;;12.10;99.90;;;;;;5011599;28;20068;-79
2023/03/30 10:24:55;;;;;;;24.08;3.85;;;12.10;99.90;;;;;;5030507;28;20033;-86
2023/03/30 10:27:39;;;;;;;16.20;3.10;;;12.10;99.90;;;;;;5029928;28;20061;-81
2023/03/30 10:30:10;;;;;;;22.20;3.00;;;12.00;99.90;;;;;;5030166;28;20041;-85
2023/03/30 10:32:37;;;;;;;24.38;3.63;;;12.00;99.90;;;;;;5029608;28;20637;-79
2023/03/30 10:35:08;;;;;;;25.65;3.60;;;12.10;99.90;;;;;;5011456;28;20062;-84
2023/03/30 10:37:41;;;;;;;22.27;4.03;;;12.00;99.90;;;;;;5030125;28;20084;-75
2023/03/30 10:40:36;;;;;;;22.95;3.58;;;12.10;99.90;;;;;;5030391;28;20495;-77
2023/03/30 10:43:03;;;;;;;21.88;3.45;;;12.10;99.90;;;;;;5013412;28;20056;-75
2023/03/30 10:45:52;;;;;;;22.60;3.97;;;12.10;99.90;;;;;;5012609;28;20392;-73
2023/03/30 10:48:49;;;;;;;24.30;3.47;;;12.30;99.90;;;;;;5030145;28;20048;-74
2023/03/30 10:51:39;;;;;;;26.67;3.88;;;12.20;99.90;;;;;;5006203;28;20057;-74
2023/03/30 10:54:19;;;;;;;31.00;4.85;;;12.20;99.90;;;;;;5024769;28;20072;-74
2023/03/30 10:56:51;;;;;;;26.92;3.45;;;12.20;99.90;;;;;;5029769;28;20780;-75
2023/03/30 10:59:46;;;;;;;25.77;3.90;;;12.20;99.90;;;;;;5024394;28;20117;-74
2023/03/30 11:02:39;;;;;;;24.17;4.38;;;12.30;99.90;;;;;;5010474;28;20559;-74
2023/03/30 11:05:14;;;;;;;21.27;3.58;;;12.40;99.90;;;;;;4992142;28;20107;-74
2023/03/30 11:07:50;;;;;;;28.05;4.50;;;12.40;99.90;;;;;;5009909;28;20049;-75
2023/03/30 11:10:50;;;;;;;21.48;3.30;;;12.50;99.90;;;;;;5015497;28;20077;-73
2023/03/30 11:13:31;;;;;;;25.90;4.28;;;12.60;99.90;;;;;;4953736;28;20118;-75
2023/03/30 11:16:06;;;;;;;27.85;4.32;;;12.60;99.90;;;;;;4965069;28;20101;-73
2023/03/30 11:18:47;;;;;;;23.73;3.67;;;12.70;99.90;;;;;;4971622;28;20077;-78
2023/03/30 11:21:18;;;;;;;28.08;4.30;;;12.80;99.90;;;;;;4971449;28;20038;-73
2023/03/30 11:23:50;;;;;;;23.92;3.80;;;12.80;99.90;;;;;;4970209;28;20424;-75
2023/03/30 11:26:48;;;;;;;19.42;3.53;;;12.90;99.90;;;;;;4972062;28;20054;-73
2023/03/30 11:29:31;;;;;;;25.25;4.63;;;12.90;99.90;;;;;;4972062;28;20602;-74
2023/03/30 11:32:10;;;;;;;32.55;4.05;;;13.00;99.90;;;;;;4971744;28;20049;-75
2023/03/30 11:34:47;;;;;;;20.60;3.75;;;13.00;99.90;;;;;;4972253;28;20513;-76
2023/03/30 11:37:37;;;;;;;27.77;3.70;;;13.20;99.90;;;;;;4955254;28;20067;-73
2023/03/30 11:40:24;;;;;;;18.05;3.53;;;13.30;99.90;;;;;;4972384;28;20093;-74
2023/03/30 11:42:50;;;;;;;20.92;3.85;;;13.60;99.90;;;;;;4971675;28;20806;-73
2023/03/30 11:45:38;;;;;;;21.42;3.40;;;13.80;99.90;;;;;;4972199;28;20055;-73
2023/03/30 11:48:39;;;;;;;24.42;3.10;;;13.70;99.90;;;;;;4955899;28;20585;-76
2023/03/30 11:51:25;;;;;;;18.55;3.83;;;13.80;99.90;;;;;;5007751;28;20058;-76
2023/03/30 11:53:53;;;;;;;;;;;13.60;99.90;;;;;;5013500;28;20092;-75
2023/03/30 11:56:30;;;;;;;20.35;3.90;;;13.70;99.90;;;;;;5013204;28;19929;-74
2023/03/30 11:59:11;;;;;;;22.55;4.00;;;13.70;99.90;;;;;;5013383;28;20050;-71
2023/03/30 12:02:11;;;;;;;25.13;3.80;;;13.50;99.90;;;;;;4995806;28;20128;-73
2023/03/30 12:05:06;;;;;;;24.23;3.45;;;13.50;99.90;;;;;;4985834;28;20049;-81
2023/03/30 12:08:02;;;;;;;22.23;3.92;;;13.50;99.90;;;;;;5031538;28;20053;-74
2023/03/30 12:10:38;;;;;;;26.88;3.58;;;13.50;99.90;;;;;;5033097;28;20457;-74
2023/03/30 12:13:04;;;;;;;19.48;4.20;;;13.50;99.90;;;;;;5032364;28;20041;-74
2023/03/30 12:15:56;;;;;;;17.52;3.88;;;13.50;99.90;;;;;;5015156;28;20444;-76
2023/03/30 12:18:25;;;;;;;22.10;4.38;;;13.50;99.90;;;;;;5033014;28;20049;-75
2023/03/30 12:21:09;;;;;;;32.08;5.03;;;13.70;99.90;;;;;;5033032;28;20107;-75
2023/03/30 12:24:04;;;;;;;29.95;4.82;;;13.50;99.90;;;;;;5017349;28;20042;-75
2023/03/30 12:26:33;;;;;;;;;;;13.60;99.90;;;;;;5014885;28;20063;-74
2023/03/30 12:29:16;;;;;;;21.33;3.55;;;13.60;99.90;;;;;;5032886;28;19921;-76
2023/03/30 12:31:57;;;;;;;20.17;3.70;;;14.10;99.90;;;;;;5021466;28;20124;-73
2023/03/30 12:34:27;;;;;;;18.45;3.78;;;13.50;99.90;;;;;;5024831;28;20500;-75
2023/03/30 12:37:03;;;;;;;24.02;3.70;;;13.70;99.90;;;;;;5032798;28;20048;-77
2023/03/30 12:39:43;;;;;;;24.42;3.70;;;14.00;99.90;;;;;;5032239;28;20092;-77
2023/03/30 12:42:26;;;;;;;16.75;3.00;;;13.90;99.90;;;;;;5014749;28;20057;-76
2023/03/30 12:45:31;;;;;;;21.10;4.13;;;13.70;99.90;;;;;;5031635;28;20183;-75
2023/03/30 12:48:03;;;;;;;26.92;4.30;;;13.70;99.90;;;;;;5032689;28;20053;-75
2023/03/30 12:50:50;;;;;;;23.67;3.85;;;13.80;99.90;;;;;;5031672;28;20084;-78
2023/03/30 12:53:34;;;;;;;23.65;4.38;;;13.70;99.90;;;;;;5032088;28;20131;-74
2023/03/30 12:56:13;;;;;;;21.23;3.77;;;13.90;99.90;;;;;;5030808;28;20048;-75
2023/03/30 12:59:01;;;;;;;27.48;4.78;;;13.90;99.90;;;;;;5012727;28;20053;-75
2023/03/30 13:02:03;;;;;;;21.95;4.35;;;14.40;99.90;;;;;;4994736;28;20512;-75
2023/03/30 13:04:36;;;;;;;23.13;4.03;;;14.50;99.90;;;;;;4995581;28;20069;-75
2023/03/30 13:07:06;;;;;;;27.25;4.40;;;14.60;99.90;;;;;;5014849;28;20057;-73